sensor_id;sensor_type;location;lat;lon;timestamp;P1;durP1;ratioP1;P2;durP2;ratioP2
51660;SDS011;37741;49.748;8.490;2023-04-29T00:00:21;3.63;;;2.08;;
51660;SDS011;37741;49.748;8.490;2023-04-29T00:02:46;3.45;;;1.83;;
51660;SDS011;37741;49.748;8.490;2023-04-29T00:05:12;2.90;;;1.80;;
51660;SDS011;37741;49.748;8.490;2023-04-29T00:07:38;6.20;;;1.98;;
51660;SDS011;37741;49.748;8.490;2023-04-29T00:10:03;3.58;;;2.30;;
51660;SDS011;37741;49.748;8.490;2023-04-29T00:12:30;4.38;;;2.13;;
51660;SDS011;37741;49.748;8.490;2023-04-29T00:14:57;3.67;;;1.73;;
51660;SDS011;37741;49.748;8.490;2023-04-29T00:17:23;4.32;;;1.52;;
51660;SDS011;37741;49.748;8.490;2023-04-29T00:19:49;3.25;;;2.13;;
51660;SDS011;37741;49.748;8.490;2023-04-29T00:22:14;2.97;;;1.85;;
51660;SDS011;37741;49.748;8.490;2023-04-29T00:24:40;4.45;;;2.00;;
51660;SDS011;37741;49.748;8.490;2023-04-29T00:27:06;3.33;;;1.80;;
51660;SDS011;37741;49.748;8.490;2023-04-29T00:29:31;3.30;;;1.85;;
51660;SDS011;37741;49.748;8.490;2023-04-29T00:31:57;3.08;;;1.80;;
51660;SDS011;37741;49.748;8.490;2023-04-29T00:34:23;3.97;;;2.08;;
51660;SDS011;37741;49.748;8.490;2023-04-29T00:36:48;2.60;;;1.50;;
51660;SDS011;37741;49.748;8.490;2023-04-29T00:39:14;3.33;;;1.95;;
51660;SDS011;37741;49.748;8.490;2023-04-29T00:41:40;2.97;;;1.95;;
51660;SDS011;37741;49.748;8.490;2023-04-29T00:44:06;4.80;;;2.45;;
51660;SDS011;37741;49.748;8.490;2023-04-29T00:46:32;2.88;;;1.75;;
51660;SDS011;37741;49.748;8.490;2023-04-29T00:48:57;2.72;;;1.75;;
51660;SDS011;37741;49.748;8.490;2023-04-29T00:51:24;3.45;;;2.17;;
51660;SDS011;37741;49.748;8.490;2023-04-29T00:53:50;2.97;;;1.85;;
51660;SDS011;37741;49.748;8.490;2023-04-29T00:56:15;3.65;;;2.30;;
51660;SDS011;37741;49.748;8.490;2023-04-29T00:58:42;4.10;;;2.22;;
51660;SDS011;37741;49.748;8.490;2023-04-29T01:01:13;3.50;;;2.47;;
51660;SDS011;37741;49.748;8.490;2023-04-29T01:03:40;4.00;;;2.20;;
51660;SDS011;37741;49.748;8.490;2023-04-29T01:08:42;3.35;;;2.13;;
51660;SDS011;37741;49.748;8.490;2023-04-29T01:11:18;3.17;;;2.17;;
51660;SDS011;37741;49.748;8.490;2023-04-29T01:13:53;3.38;;;2.28;;
51660;SDS011;37741;49.748;8.490;2023-04-29T01:17:10;4.65;;;2.25;;
51660;SDS011;37741;49.748;8.490;2023-04-29T01:22:04;3.55;;;2.35;;
51660;SDS011;37741;49.748;8.490;2023-04-29T01:24:30;3.28;;;2.10;;
51660;SDS011;37741;49.748;8.490;2023-04-29T01:26:58;3.83;;;2.10;;
51660;SDS011;37741;49.748;8.490;2023-04-29T01:29:39;3.20;;;2.30;;
51660;SDS011;37741;49.748;8.490;2023-04-29T01:32:08;3.28;;;2.10;;
51660;SDS011;37741;49.748;8.490;2023-04-29T01:34:54;3.40;;;2.67;;
51660;SDS011;37741;49.748;8.490;2023-04-29T01:40:42;4.60;;;2.20;;
51660;SDS011;37741;49.748;8.490;2023-04-29T01:45:39;3.58;;;1.85;;
51660;SDS011;37741;49.748;8.490;2023-04-29T01:48:05;3.90;;;1.77;;
51660;SDS011;37741;49.748;8.490;2023-04-29T01:50:32;3.47;;;2.28;;
51660;SDS011;37741;49.748;8.490;2023-04-29T01:52:58;2.85;;;1.80;;
51660;SDS011;37741;49.748;8.490;2023-04-29T01:55:23;2.97;;;1.63;;
51660;SDS011;37741;49.748;8.490;2023-04-29T01:57:49;4.07;;;1.83;;
51660;SDS011;37741;49.748;8.490;2023-04-29T02:00:15;2.67;;;1.58;;
51660;SDS011;37741;49.748;8.490;2023-04-29T02:02:41;4.80;;;1.90;;
51660;SDS011;37741;49.748;8.490;2023-04-29T02:05:07;2.80;;;1.35;;
51660;SDS011;37741;49.748;8.490;2023-04-29T02:07:33;2.42;;;1.50;;
51660;SDS011;37741;49.748;8.490;2023-04-29T02:09:59;2.50;;;1.50;;
51660;SDS011;37741;49.748;8.490;2023-04-29T02:12:25;2.28;;;1.35;;
51660;SDS011;37741;49.748;8.490;2023-04-29T02:14:53;1.70;;;1.00;;
51660;SDS011;37741;49.748;8.490;2023-04-29T02:17:19;2.15;;;1.58;;
51660;SDS011;37741;49.748;8.490;2023-04-29T02:19:44;2.50;;;1.38;;
51660;SDS011;37741;49.748;8.490;2023-04-29T02:22:10;3.30;;;1.00;;
51660;SDS011;37741;49.748;8.490;2023-04-29T02:24:36;2.45;;;1.40;;
51660;SDS011;37741;49.748;8.490;2023-04-29T02:27:03;2.08;;;1.15;;
51660;SDS011;37741;49.748;8.490;2023-04-29T02:29:30;2.90;;;1.25;;
51660;SDS011;37741;49.748;8.490;2023-04-29T02:31:56;1.95;;;1.02;;
51660;SDS011;37741;49.748;8.490;2023-04-29T02:34:21;2.80;;;0.90;;
51660;SDS011;37741;49.748;8.490;2023-04-29T02:36:48;3.40;;;1.40;;
51660;SDS011;37741;49.748;8.490;2023-04-29T02:39:14;3.45;;;1.17;;
51660;SDS011;37741;49.748;8.490;2023-04-29T02:41:39;1.67;;;0.95;;
51660;SDS011;37741;49.748;8.490;2023-04-29T02:44:06;2.28;;;1.55;;
51660;SDS011;37741;49.748;8.490;2023-04-29T02:46:32;2.35;;;0.88;;
51660;SDS011;37741;49.748;8.490;2023-04-29T02:48:59;1.60;;;0.90;;
51660;SDS011;37741;49.748;8.490;2023-04-29T02:51:26;3.53;;;0.95;;
51660;SDS011;37741;49.748;8.490;2023-04-29T02:53:52;2.13;;;1.00;;
51660;SDS011;37741;49.748;8.490;2023-04-29T02:56:17;2.00;;;1.20;;
51660;SDS011;37741;49.748;8.490;2023-04-29T02:58:43;1.95;;;1.08;;
51660;SDS011;37741;49.748;8.490;2023-04-29T03:01:09;2.17;;;1.02;;
51660;SDS011;37741;49.748;8.490;2023-04-29T03:03:35;1.55;;;0.82;;
51660;SDS011;37741;49.748;8.490;2023-04-29T03:06:00;3.70;;;1.00;;
51660;SDS011;37741;49.748;8.490;2023-04-29T03:08:26;2.40;;;0.88;;
51660;SDS011;37741;49.748;8.490;2023-04-29T03:10:52;2.15;;;0.98;;
51660;SDS011;37741;49.748;8.490;2023-04-29T03:13:17;1.08;;;0.70;;
51660;SDS011;37741;49.748;8.490;2023-04-29T03:15:43;2.35;;;1.02;;
51660;SDS011;37741;49.748;8.490;2023-04-29T03:18:09;2.80;;;0.90;;
51660;SDS011;37741;49.748;8.490;2023-04-29T03:20:34;1.45;;;0.70;;
51660;SDS011;37741;49.748;8.490;2023-04-29T03:23:00;1.42;;;0.80;;
51660;SDS011;37741;49.748;8.490;2023-04-29T03:25:26;3.30;;;0.85;;
51660;SDS011;37741;49.748;8.490;2023-04-29T03:27:52;2.80;;;1.15;;
51660;SDS011;37741;49.748;8.490;2023-04-29T03:30:18;4.07;;;0.90;;
51660;SDS011;37741;49.748;8.490;2023-04-29T03:32:43;1.73;;;1.00;;
51660;SDS011;37741;49.748;8.490;2023-04-29T03:35:09;1.45;;;0.65;;
51660;SDS011;37741;49.748;8.490;2023-04-29T03:37:35;2.17;;;0.77;;
51660;SDS011;37741;49.748;8.490;2023-04-29T03:40:01;1.85;;;0.80;;
51660;SDS011;37741;49.748;8.490;2023-04-29T03:42:28;2.00;;;0.85;;
51660;SDS011;37741;49.748;8.490;2023-04-29T03:44:53;2.00;;;1.08;;
51660;SDS011;37741;49.748;8.490;2023-04-29T03:47:19;1.25;;;0.80;;
51660;SDS011;37741;49.748;8.490;2023-04-29T03:49:44;1.45;;;0.80;;
51660;SDS011;37741;49.748;8.490;2023-04-29T03:52:10;1.50;;;0.70;;
51660;SDS011;37741;49.748;8.490;2023-04-29T03:54:36;1.80;;;0.90;;
51660;SDS011;37741;49.748;8.490;2023-04-29T03:57:02;1.45;;;0.63;;
51660;SDS011;37741;49.748;8.490;2023-04-29T03:59:28;1.80;;;0.90;;
51660;SDS011;37741;49.748;8.490;2023-04-29T04:01:54;1.33;;;0.70;;
51660;SDS011;37741;49.748;8.490;2023-04-29T04:04:20;1.70;;;0.80;;
51660;SDS011;37741;49.748;8.490;2023-04-29T04:06:45;1.58;;;0.90;;
51660;SDS011;37741;49.748;8.490;2023-04-29T04:09:15;1.60;;;0.70;;
51660;SDS011;37741;49.748;8.490;2023-04-29T04:11:42;1.35;;;0.70;;
51660;SDS011;37741;49.748;8.490;2023-04-29T04:14:08;1.70;;;0.88;;
51660;SDS011;37741;49.748;8.490;2023-04-29T04:16:39;1.45;;;0.70;;
51660;SDS011;37741;49.748;8.490;2023-04-29T04:19:07;1.58;;;0.80;;
51660;SDS011;37741;49.748;8.490;2023-04-29T04:21:39;1.70;;;1.08;;
51660;SDS011;37741;49.748;8.490;2023-04-29T04:26:51;1.13;;;0.50;;
51660;SDS011;37741;49.748;8.490;2023-04-29T04:29:17;2.13;;;0.90;;
51660;SDS011;37741;49.748;8.490;2023-04-29T04:31:42;1.98;;;0.80;;
51660;SDS011;37741;49.748;8.490;2023-04-29T04:34:09;2.78;;;1.73;;
51660;SDS011;37741;49.748;8.490;2023-04-29T04:36:34;1.27;;;0.68;;
51660;SDS011;37741;49.748;8.490;2023-04-29T04:39:00;1.83;;;0.90;;
51660;SDS011;37741;49.748;8.490;2023-04-29T04:41:26;1.80;;;0.77;;
51660;SDS011;37741;49.748;8.490;2023-04-29T04:43:51;1.50;;;0.70;;
51660;SDS011;37741;49.748;8.490;2023-04-29T04:46:17;2.72;;;1.00;;
51660;SDS011;37741;49.748;8.490;2023-04-29T04:48:43;1.80;;;0.80;;
51660;SDS011;37741;49.748;8.490;2023-04-29T04:51:09;1.52;;;0.80;;
51660;SDS011;37741;49.748;8.490;2023-04-29T04:53:35;2.47;;;1.25;;
51660;SDS011;37741;49.748;8.490;2023-04-29T04:56:01;1.95;;;0.90;;
51660;SDS011;37741;49.748;8.490;2023-04-29T04:58:27;2.10;;;0.90;;
51660;SDS011;37741;49.748;8.490;2023-04-29T05:00:53;1.85;;;0.90;;
51660;SDS011;37741;49.748;8.490;2023-04-29T05:03:18;1.55;;;0.90;;
51660;SDS011;37741;49.748;8.490;2023-04-29T05:05:44;1.30;;;0.70;;
51660;SDS011;37741;49.748;8.490;2023-04-29T05:08:09;2.22;;;0.90;;
51660;SDS011;37741;49.748;8.490;2023-04-29T05:10:35;2.10;;;1.00;;
51660;SDS011;37741;49.748;8.490;2023-04-29T05:13:01;1.90;;;0.90;;
51660;SDS011;37741;49.748;8.490;2023-04-29T05:15:27;3.45;;;1.10;;
51660;SDS011;37741;49.748;8.490;2023-04-29T05:17:52;1.67;;;0.90;;
51660;SDS011;37741;49.748;8.490;2023-04-29T05:20:18;1.80;;;1.10;;
51660;SDS011;37741;49.748;8.490;2023-04-29T05:22:44;1.55;;;0.90;;
51660;SDS011;37741;49.748;8.490;2023-04-29T05:25:10;3.72;;;1.45;;
51660;SDS011;37741;49.748;8.490;2023-04-29T05:27:36;2.17;;;1.40;;
51660;SDS011;37741;49.748;8.490;2023-04-29T05:30:02;2.42;;;1.30;;
51660;SDS011;37741;49.748;8.490;2023-04-29T05:32:28;2.58;;;1.60;;
51660;SDS011;37741;49.748;8.490;2023-04-29T05:34:53;3.38;;;1.83;;
51660;SDS011;37741;49.748;8.490;2023-04-29T05:37:19;2.80;;;1.63;;
51660;SDS011;37741;49.748;8.490;2023-04-29T05:39:45;2.97;;;1.88;;
51660;SDS011;37741;49.748;8.490;2023-04-29T05:42:10;3.30;;;2.20;;
51660;SDS011;37741;49.748;8.490;2023-04-29T05:44:36;3.13;;;1.95;;
51660;SDS011;37741;49.748;8.490;2023-04-29T05:47:01;3.92;;;2.15;;
51660;SDS011;37741;49.748;8.490;2023-04-29T05:49:27;3.80;;;2.85;;
51660;SDS011;37741;49.748;8.490;2023-04-29T05:51:52;4.07;;;3.25;;
51660;SDS011;37741;49.748;8.490;2023-04-29T05:54:21;4.90;;;2.97;;
51660;SDS011;37741;49.748;8.490;2023-04-29T05:56:46;5.75;;;3.88;;
51660;SDS011;37741;49.748;8.490;2023-04-29T05:59:12;4.65;;;3.85;;
51660;SDS011;37741;49.748;8.490;2023-04-29T06:01:38;5.07;;;3.97;;
51660;SDS011;37741;49.748;8.490;2023-04-29T06:04:03;5.97;;;4.55;;
51660;SDS011;37741;49.748;8.490;2023-04-29T06:06:29;6.35;;;5.25;;
51660;SDS011;37741;49.748;8.490;2023-04-29T06:08:55;7.10;;;5.40;;
51660;SDS011;37741;49.748;8.490;2023-04-29T06:11:21;7.20;;;5.38;;
51660;SDS011;37741;49.748;8.490;2023-04-29T06:13:47;7.97;;;5.93;;
51660;SDS011;37741;49.748;8.490;2023-04-29T06:16:12;7.43;;;6.57;;
51660;SDS011;37741;49.748;8.490;2023-04-29T06:18:38;8.07;;;5.88;;
51660;SDS011;37741;49.748;8.490;2023-04-29T06:21:03;8.75;;;6.75;;
51660;SDS011;37741;49.748;8.490;2023-04-29T06:23:29;7.88;;;6.45;;
51660;SDS011;37741;49.748;8.490;2023-04-29T06:25:56;7.30;;;5.90;;
51660;SDS011;37741;49.748;8.490;2023-04-29T06:28:22;8.07;;;6.25;;
51660;SDS011;37741;49.748;8.490;2023-04-29T06:30:47;8.35;;;5.28;;
51660;SDS011;37741;49.748;8.490;2023-04-29T06:33:14;6.28;;;5.63;;
51660;SDS011;37741;49.748;8.490;2023-04-29T06:35:40;7.15;;;5.40;;
51660;SDS011;37741;49.748;8.490;2023-04-29T06:38:06;6.82;;;5.72;;
51660;SDS011;37741;49.748;8.490;2023-04-29T06:40:34;8.15;;;5.95;;
51660;SDS011;37741;49.748;8.490;2023-04-29T06:43:00;7.82;;;6.45;;
51660;SDS011;37741;49.748;8.490;2023-04-29T06:45:26;7.85;;;6.30;;
51660;SDS011;37741;49.748;8.490;2023-04-29T06:47:52;7.60;;;6.07;;
51660;SDS011;37741;49.748;8.490;2023-04-29T06:50:18;7.85;;;6.50;;
51660;SDS011;37741;49.748;8.490;2023-04-29T06:52:44;8.40;;;6.60;;
51660;SDS011;37741;49.748;8.490;2023-04-29T06:55:09;7.78;;;6.50;;
51660;SDS011;37741;49.748;8.490;2023-04-29T06:57:36;8.55;;;6.53;;
51660;SDS011;37741;49.748;8.490;2023-04-29T07:00:02;7.75;;;6.38;;
51660;SDS011;37741;49.748;8.490;2023-04-29T07:02:28;7.35;;;6.55;;
51660;SDS011;37741;49.748;8.490;2023-04-29T07:04:54;7.50;;;5.88;;
51660;SDS011;37741;49.748;8.490;2023-04-29T07:07:19;7.95;;;6.30;;
51660;SDS011;37741;49.748;8.490;2023-04-29T07:09:45;9.02;;;7.65;;
51660;SDS011;37741;49.748;8.490;2023-04-29T07:12:10;7.97;;;6.75;;
51660;SDS011;37741;49.748;8.490;2023-04-29T07:14:36;9.38;;;6.85;;
51660;SDS011;37741;49.748;8.490;2023-04-29T07:17:02;8.38;;;6.68;;
51660;SDS011;37741;49.748;8.490;2023-04-29T07:19:27;12.55;;;7.43;;
51660;SDS011;37741;49.748;8.490;2023-04-29T07:21:53;13.55;;;7.30;;
51660;SDS011;37741;49.748;8.490;2023-04-29T07:24:18;10.00;;;7.15;;
51660;SDS011;37741;49.748;8.490;2023-04-29T07:26:44;13.80;;;7.60;;
51660;SDS011;37741;49.748;8.490;2023-04-29T07:29:10;17.42;;;6.90;;
51660;SDS011;37741;49.748;8.490;2023-04-29T07:31:35;12.02;;;7.53;;
51660;SDS011;37741;49.748;8.490;2023-04-29T07:34:01;7.65;;;6.85;;
51660;SDS011;37741;49.748;8.490;2023-04-29T07:36:27;8.70;;;6.95;;
51660;SDS011;37741;49.748;8.490;2023-04-29T07:38:52;8.32;;;7.28;;
51660;SDS011;37741;49.748;8.490;2023-04-29T07:41:19;14.27;;;6.60;;
51660;SDS011;37741;49.748;8.490;2023-04-29T07:43:44;10.63;;;6.57;;
51660;SDS011;37741;49.748;8.490;2023-04-29T07:46:10;10.40;;;6.68;;
51660;SDS011;37741;49.748;8.490;2023-04-29T07:48:36;9.13;;;6.43;;
51660;SDS011;37741;49.748;8.490;2023-04-29T07:51:03;7.40;;;6.03;;
51660;SDS011;37741;49.748;8.490;2023-04-29T07:53:29;7.03;;;5.90;;
51660;SDS011;37741;49.748;8.490;2023-04-29T07:55:55;8.20;;;5.50;;
51660;SDS011;37741;49.748;8.490;2023-04-29T07:58:20;8.60;;;5.90;;
51660;SDS011;37741;49.748;8.490;2023-04-29T08:00:46;7.93;;;6.03;;
51660;SDS011;37741;49.748;8.490;2023-04-29T08:03:12;7.75;;;6.20;;
51660;SDS011;37741;49.748;8.490;2023-04-29T08:05:38;7.95;;;5.28;;
51660;SDS011;37741;49.748;8.490;2023-04-29T08:08:03;7.93;;;5.88;;
51660;SDS011;37741;49.748;8.490;2023-04-29T08:10:29;7.57;;;5.70;;
51660;SDS011;37741;49.748;8.490;2023-04-29T08:12:55;8.88;;;5.63;;
51660;SDS011;37741;49.748;8.490;2023-04-29T08:15:22;5.50;;;4.68;;
51660;SDS011;37741;49.748;8.490;2023-04-29T08:17:47;6.40;;;5.00;;
51660;SDS011;37741;49.748;8.490;2023-04-29T08:20:13;7.07;;;5.05;;
51660;SDS011;37741;49.748;8.490;2023-04-29T08:22:39;6.80;;;4.90;;
51660;SDS011;37741;49.748;8.490;2023-04-29T08:25:05;9.23;;;4.95;;
51660;SDS011;37741;49.748;8.490;2023-04-29T08:27:31;6.05;;;5.05;;
51660;SDS011;37741;49.748;8.490;2023-04-29T08:29:57;7.00;;;4.85;;
51660;SDS011;37741;49.748;8.490;2023-04-29T08:32:23;13.45;;;5.80;;
51660;SDS011;37741;49.748;8.490;2023-04-29T08:34:48;10.05;;;6.03;;
51660;SDS011;37741;49.748;8.490;2023-04-29T08:37:14;10.50;;;5.63;;
51660;SDS011;37741;49.748;8.490;2023-04-29T08:39:40;10.68;;;5.47;;
51660;SDS011;37741;49.748;8.490;2023-04-29T08:42:10;8.50;;;4.90;;
51660;SDS011;37741;49.748;8.490;2023-04-29T08:44:36;10.32;;;5.63;;
51660;SDS011;37741;49.748;8.490;2023-04-29T08:47:04;8.75;;;4.88;;
51660;SDS011;37741;49.748;8.490;2023-04-29T08:49:31;7.32;;;4.53;;
51660;SDS011;37741;49.748;8.490;2023-04-29T08:51:58;8.82;;;5.85;;
51660;SDS011;37741;49.748;8.490;2023-04-29T08:54:24;7.82;;;5.38;;
51660;SDS011;37741;49.748;8.490;2023-04-29T08:56:50;9.30;;;5.40;;
51660;SDS011;37741;49.748;8.490;2023-04-29T08:59:17;14.13;;;5.03;;
51660;SDS011;37741;49.748;8.490;2023-04-29T09:01:44;10.57;;;5.07;;
51660;SDS011;37741;49.748;8.490;2023-04-29T09:04:30;6.43;;;4.13;;
51660;SDS011;37741;49.748;8.490;2023-04-29T09:07:20;6.85;;;4.57;;
51660;SDS011;37741;49.748;8.490;2023-04-29T09:09:46;8.50;;;3.90;;
51660;SDS011;37741;49.748;8.490;2023-04-29T09:12:13;5.43;;;4.00;;
51660;SDS011;37741;49.748;8.490;2023-04-29T09:14:39;9.63;;;5.50;;
51660;SDS011;37741;49.748;8.490;2023-04-29T09:17:05;10.50;;;4.63;;
51660;SDS011;37741;49.748;8.490;2023-04-29T09:19:31;8.82;;;4.65;;
51660;SDS011;37741;49.748;8.490;2023-04-29T09:21:58;6.95;;;4.22;;
51660;SDS011;37741;49.748;8.490;2023-04-29T09:24:25;6.75;;;4.53;;
51660;SDS011;37741;49.748;8.490;2023-04-29T09:26:52;5.30;;;4.30;;
51660;SDS011;37741;49.748;8.490;2023-04-29T09:29:19;7.53;;;3.70;;
51660;SDS011;37741;49.748;8.490;2023-04-29T09:31:44;8.10;;;4.35;;
51660;SDS011;37741;49.748;8.490;2023-04-29T09:34:11;8.40;;;4.70;;
51660;SDS011;37741;49.748;8.490;2023-04-29T09:36:46;5.28;;;3.80;;
51660;SDS011;37741;49.748;8.490;2023-04-29T09:39:14;5.90;;;3.72;;
51660;SDS011;37741;49.748;8.490;2023-04-29T09:44:29;4.45;;;3.78;;
51660;SDS011;37741;49.748;8.490;2023-04-29T09:46:56;6.60;;;4.40;;
51660;SDS011;37741;49.748;8.490;2023-04-29T09:49:33;5.47;;;3.60;;
51660;SDS011;37741;49.748;8.490;2023-04-29T09:52:10;5.20;;;3.70;;
51660;SDS011;37741;49.748;8.490;2023-04-29T09:54:38;4.90;;;3.40;;
51660;SDS011;37741;49.748;8.490;2023-04-29T09:57:05;4.70;;;3.50;;
51660;SDS011;37741;49.748;8.490;2023-04-29T09:59:32;5.50;;;4.00;;
51660;SDS011;37741;49.748;8.490;2023-04-29T10:02:00;11.05;;;4.32;;
51660;SDS011;37741;49.748;8.490;2023-04-29T10:04:31;6.80;;;4.68;;
51660;SDS011;37741;49.748;8.490;2023-04-29T10:07:01;6.82;;;4.38;;
51660;SDS011;37741;49.748;8.490;2023-04-29T10:09:27;6.05;;;4.63;;
51660;SDS011;37741;49.748;8.490;2023-04-29T10:11:57;5.45;;;4.40;;
51660;SDS011;37741;49.748;8.490;2023-04-29T10:14:26;6.60;;;3.97;;
51660;SDS011;37741;49.748;8.490;2023-04-29T10:16:58;5.82;;;4.85;;
51660;SDS011;37741;49.748;8.490;2023-04-29T10:22:16;6.18;;;4.47;;
51660;SDS011;37741;49.748;8.490;2023-04-29T10:24:52;6.47;;;4.85;;
51660;SDS011;37741;49.748;8.490;2023-04-29T10:27:21;8.07;;;4.88;;
51660;SDS011;37741;49.748;8.490;2023-04-29T10:29:52;6.07;;;5.13;;
51660;SDS011;37741;49.748;8.490;2023-04-29T10:32:29;6.60;;;5.03;;
51660;SDS011;37741;49.748;8.490;2023-04-29T10:34:56;5.18;;;4.45;;
51660;SDS011;37741;49.748;8.490;2023-04-29T10:37:23;7.32;;;4.95;;
51660;SDS011;37741;49.748;8.490;2023-04-29T10:40:03;5.93;;;4.38;;
51660;SDS011;37741;49.748;8.490;2023-04-29T10:42:52;4.65;;;3.72;;
51660;SDS011;37741;49.748;8.490;2023-04-29T10:45:21;5.30;;;4.28;;
51660;SDS011;37741;49.748;8.490;2023-04-29T10:48:11;5.85;;;4.45;;
51660;SDS011;37741;49.748;8.490;2023-04-29T10:51:08;5.22;;;4.30;;
51660;SDS011;37741;49.748;8.490;2023-04-29T10:56:49;5.82;;;4.68;;
51660;SDS011;37741;49.748;8.490;2023-04-29T11:01:53;6.05;;;4.57;;
51660;SDS011;37741;49.748;8.490;2023-04-29T11:04:20;6.57;;;4.45;;
51660;SDS011;37741;49.748;8.490;2023-04-29T11:06:53;5.25;;;3.85;;
51660;SDS011;37741;49.748;8.490;2023-04-29T11:12:01;6.57;;;3.93;;
51660;SDS011;37741;49.748;8.490;2023-04-29T11:14:36;5.65;;;3.95;;
51660;SDS011;37741;49.748;8.490;2023-04-29T11:17:15;5.18;;;3.65;;
51660;SDS011;37741;49.748;8.490;2023-04-29T11:19:45;5.70;;;4.07;;
51660;SDS011;37741;49.748;8.490;2023-04-29T11:24:47;4.78;;;3.72;;
51660;SDS011;37741;49.748;8.490;2023-04-29T11:27:39;4.80;;;3.60;;
51660;SDS011;37741;49.748;8.490;2023-04-29T11:30:13;4.45;;;3.67;;
51660;SDS011;37741;49.748;8.490;2023-04-29T11:32:44;4.97;;;3.67;;
51660;SDS011;37741;49.748;8.490;2023-04-29T11:35:10;4.93;;;3.65;;
51660;SDS011;37741;49.748;8.490;2023-04-29T11:37:44;4.57;;;3.67;;
51660;SDS011;37741;49.748;8.490;2023-04-29T11:40:13;4.03;;;3.22;;
51660;SDS011;37741;49.748;8.490;2023-04-29T11:42:45;4.78;;;3.40;;
51660;SDS011;37741;49.748;8.490;2023-04-29T11:45:18;8.60;;;3.45;;
51660;SDS011;37741;49.748;8.490;2023-04-29T11:47:47;5.03;;;4.05;;
51660;SDS011;37741;49.748;8.490;2023-04-29T11:50:25;5.53;;;3.97;;
51660;SDS011;37741;49.748;8.490;2023-04-29T11:52:51;6.53;;;4.40;;
51660;SDS011;37741;49.748;8.490;2023-04-29T11:55:17;4.82;;;3.85;;
51660;SDS011;37741;49.748;8.490;2023-04-29T11:57:48;4.13;;;3.38;;
51660;SDS011;37741;49.748;8.490;2023-04-29T12:00:17;4.50;;;3.63;;
51660;SDS011;37741;49.748;8.490;2023-04-29T12:02:50;3.83;;;2.83;;
51660;SDS011;37741;49.748;8.490;2023-04-29T12:05:16;3.75;;;2.97;;
51660;SDS011;37741;49.748;8.490;2023-04-29T12:07:42;3.60;;;3.05;;
51660;SDS011;37741;49.748;8.490;2023-04-29T12:10:09;5.68;;;3.78;;
51660;SDS011;37741;49.748;8.490;2023-04-29T12:12:35;4.85;;;3.47;;
51660;SDS011;37741;49.748;8.490;2023-04-29T12:15:04;5.10;;;3.45;;
51660;SDS011;37741;49.748;8.490;2023-04-29T12:17:31;5.60;;;2.83;;
51660;SDS011;37741;49.748;8.490;2023-04-29T12:19:57;5.05;;;3.25;;
51660;SDS011;37741;49.748;8.490;2023-04-29T12:22:29;4.65;;;3.60;;
51660;SDS011;37741;49.748;8.490;2023-04-29T12:24:56;10.98;;;3.25;;
51660;SDS011;37741;49.748;8.490;2023-04-29T12:27:21;6.80;;;3.70;;
51660;SDS011;37741;49.748;8.490;2023-04-29T12:29:50;9.30;;;3.60;;
51660;SDS011;37741;49.748;8.490;2023-04-29T12:32:17;7.65;;;3.13;;
51660;SDS011;37741;49.748;8.490;2023-04-29T12:34:46;8.43;;;3.00;;
51660;SDS011;37741;49.748;8.490;2023-04-29T12:37:12;7.28;;;3.67;;
51660;SDS011;37741;49.748;8.490;2023-04-29T12:39:39;9.05;;;2.90;;
51660;SDS011;37741;49.748;8.490;2023-04-29T12:42:05;4.80;;;2.75;;
51660;SDS011;37741;49.748;8.490;2023-04-29T12:44:37;3.60;;;2.70;;
51660;SDS011;37741;49.748;8.490;2023-04-29T12:47:09;4.63;;;2.80;;
51660;SDS011;37741;49.748;8.490;2023-04-29T12:49:37;6.05;;;3.00;;
51660;SDS011;37741;49.748;8.490;2023-04-29T12:52:09;4.40;;;2.75;;
51660;SDS011;37741;49.748;8.490;2023-04-29T12:54:35;8.00;;;2.72;;
51660;SDS011;37741;49.748;8.490;2023-04-29T12:57:01;3.90;;;2.42;;
51660;SDS011;37741;49.748;8.490;2023-04-29T12:59:28;3.35;;;2.40;;
51660;SDS011;37741;49.748;8.490;2023-04-29T13:01:53;20.52;;;4.80;;
51660;SDS011;37741;49.748;8.490;2023-04-29T13:04:19;9.10;;;3.22;;
51660;SDS011;37741;49.748;8.490;2023-04-29T13:06:45;15.65;;;3.63;;
51660;SDS011;37741;49.748;8.490;2023-04-29T13:09:10;9.35;;;2.80;;
51660;SDS011;37741;49.748;8.490;2023-04-29T13:11:37;12.10;;;4.53;;
51660;SDS011;37741;49.748;8.490;2023-04-29T13:14:03;8.63;;;3.00;;
51660;SDS011;37741;49.748;8.490;2023-04-29T13:16:31;7.97;;;3.22;;
51660;SDS011;37741;49.748;8.490;2023-04-29T13:18:57;9.63;;;3.10;;
51660;SDS011;37741;49.748;8.490;2023-04-29T13:21:23;5.88;;;2.45;;
51660;SDS011;37741;49.748;8.490;2023-04-29T13:23:51;11.57;;;2.50;;
51660;SDS011;37741;49.748;8.490;2023-04-29T13:26:20;6.65;;;3.10;;
51660;SDS011;37741;49.748;8.490;2023-04-29T13:28:47;5.55;;;2.60;;
51660;SDS011;37741;49.748;8.490;2023-04-29T13:31:13;4.85;;;2.22;;
51660;SDS011;37741;49.748;8.490;2023-04-29T13:33:38;5.85;;;2.45;;
51660;SDS011;37741;49.748;8.490;2023-04-29T13:36:04;3.78;;;2.17;;
51660;SDS011;37741;49.748;8.490;2023-04-29T13:38:30;6.32;;;2.25;;
51660;SDS011;37741;49.748;8.490;2023-04-29T13:40:56;7.05;;;2.60;;
51660;SDS011;37741;49.748;8.490;2023-04-29T13:43:21;3.22;;;2.47;;
51660;SDS011;37741;49.748;8.490;2023-04-29T13:45:47;5.53;;;2.53;;
51660;SDS011;37741;49.748;8.490;2023-04-29T13:48:13;3.92;;;1.95;;
51660;SDS011;37741;49.748;8.490;2023-04-29T13:50:38;4.38;;;1.95;;
51660;SDS011;37741;49.748;8.490;2023-04-29T13:53:05;3.00;;;2.10;;
51660;SDS011;37741;49.748;8.490;2023-04-29T13:55:31;4.65;;;2.20;;
51660;SDS011;37741;49.748;8.490;2023-04-29T13:57:59;8.82;;;2.08;;
51660;SDS011;37741;49.748;8.490;2023-04-29T14:00:24;3.53;;;1.98;;
51660;SDS011;37741;49.748;8.490;2023-04-29T14:02:50;5.25;;;2.10;;
51660;SDS011;37741;49.748;8.490;2023-04-29T14:05:16;3.65;;;1.95;;
51660;SDS011;37741;49.748;8.490;2023-04-29T14:07:41;3.08;;;2.20;;
51660;SDS011;37741;49.748;8.490;2023-04-29T14:10:07;4.18;;;2.40;;
51660;SDS011;37741;49.748;8.490;2023-04-29T14:12:33;4.88;;;2.22;;
51660;SDS011;37741;49.748;8.490;2023-04-29T14:14:58;2.75;;;2.00;;
51660;SDS011;37741;49.748;8.490;2023-04-29T14:17:24;4.10;;;2.17;;
51660;SDS011;37741;49.748;8.490;2023-04-29T14:19:49;3.95;;;2.42;;
51660;SDS011;37741;49.748;8.490;2023-04-29T14:22:15;3.75;;;2.10;;
51660;SDS011;37741;49.748;8.490;2023-04-29T14:24:41;5.00;;;2.38;;
51660;SDS011;37741;49.748;8.490;2023-04-29T14:27:06;3.00;;;2.30;;
51660;SDS011;37741;49.748;8.490;2023-04-29T14:29:32;3.30;;;2.60;;
51660;SDS011;37741;49.748;8.490;2023-04-29T14:31:57;4.78;;;2.25;;
51660;SDS011;37741;49.748;8.490;2023-04-29T14:34:23;3.15;;;2.15;;
51660;SDS011;37741;49.748;8.490;2023-04-29T14:36:48;3.28;;;1.98;;
51660;SDS011;37741;49.748;8.490;2023-04-29T14:39:14;3.10;;;2.20;;
51660;SDS011;37741;49.748;8.490;2023-04-29T14:41:40;3.45;;;2.40;;
51660;SDS011;37741;49.748;8.490;2023-04-29T14:44:05;4.63;;;2.30;;
51660;SDS011;37741;49.748;8.490;2023-04-29T14:46:31;3.08;;;2.17;;
51660;SDS011;37741;49.748;8.490;2023-04-29T14:48:57;3.45;;;2.10;;
51660;SDS011;37741;49.748;8.490;2023-04-29T14:51:23;4.35;;;2.50;;
51660;SDS011;37741;49.748;8.490;2023-04-29T14:53:49;3.00;;;2.15;;
51660;SDS011;37741;49.748;8.490;2023-04-29T14:56:16;3.55;;;2.38;;
51660;SDS011;37741;49.748;8.490;2023-04-29T14:58:41;2.63;;;1.90;;
51660;SDS011;37741;49.748;8.490;2023-04-29T15:01:07;3.72;;;2.30;;
51660;SDS011;37741;49.748;8.490;2023-04-29T15:03:33;3.58;;;2.63;;
51660;SDS011;37741;49.748;8.490;2023-04-29T15:06:02;3.50;;;2.17;;
51660;SDS011;37741;49.748;8.490;2023-04-29T15:08:28;3.38;;;2.50;;
51660;SDS011;37741;49.748;8.490;2023-04-29T15:10:54;3.35;;;2.20;;
51660;SDS011;37741;49.748;8.490;2023-04-29T15:13:20;3.45;;;2.30;;
51660;SDS011;37741;49.748;8.490;2023-04-29T15:15:46;3.50;;;2.20;;
51660;SDS011;37741;49.748;8.490;2023-04-29T15:18:12;3.40;;;2.38;;